Time;durP1;ratioP1;P1;durP2;ratioP2;P2;SDS_P1;SDS_P2;PMS_P1;PMS_P2;Temp;Humidity;BMP_temperature;BMP_pressure;BME280_temperature;BME280_humidity;BME280_pressure;Samples;Min_cycle;Max_cycle;Signal;HPM_P1;HPM_P2
2023/03/23 00:00:06;;;;;;;1.45;0.70;;;;;;;15.47;48.72;98852.00;341906;28;1741;-69
2023/03/23 00:00:18;;;;;;;1.75;0.70;;;;;;;15.47;48.77;98853.78;341064;29;1156;-69
2023/03/23 00:00:29;;;;;;;1.73;0.73;;;;;;;15.48;48.79;98851.06;342144;28;1025;-69
2023/03/23 00:00:40;;;;;;;2.22;0.80;;;;;;;15.50;48.69;98850.97;340785;29;895;-69
2023/03/23 00:00:51;;;;;;;1.60;0.70;;;;;;;15.53;48.69;98850.75;340255;28;3778;-69
2023/03/23 00:01:05;;;;;;;1.25;0.60;;;;;;;15.55;48.52;98847.13;339950;29;2652;-69
2023/03/23 00:01:21;;;;;;;0.73;0.70;;;;;;;15.51;48.54;98844.78;340633;29;1171;-69
2023/03/23 00:01:36;;;;;;;0.88;0.82;;;;;;;15.48;48.63;98851.06;341659;28;1899;-69
2023/03/23 00:01:49;;;;;;;1.45;0.80;;;;;;;15.49;48.68;98851.91;341194;28;1367;-69
2023/03/23 00:02:00;;;;;;;1.40;0.75;;;;;;;15.47;48.70;98848.56;341270;28;1793;-69
2023/03/23 00:02:11;;;;;;;0.88;0.70;;;;;;;15.44;48.81;98852.22;341708;28;1564;-68
2023/03/23 00:02:26;;;;;;;0.70;0.70;;;;;;;15.48;48.85;98851.06;342134;28;938;-68
2023/03/23 00:02:37;;;;;;;1.23;0.70;;;;;;;15.51;48.51;98848.28;340353;28;1658;-68
2023/03/23 00:02:48;;;;;;;1.13;0.70;;;;;;;15.47;48.62;98844.16;340982;28;1509;-68
2023/03/23 00:03:01;;;;;;;1.13;0.77;;;;;;;15.48;48.71;98845.84;340984;29;1032;-68
2023/03/23 00:03:12;;;;;;;0.90;0.73;;;;;;;15.52;48.69;98849.09;340951;29;1078;-68
2023/03/23 00:03:25;;;;;;;1.27;0.73;;;;;;;15.53;48.35;98859.47;340700;29;880;-69
2023/03/23 00:03:37;;;;;;;2.00;0.70;;;;;;;15.55;48.53;98852.38;341638;28;993;-68
2023/03/23 00:03:50;;;;;;;1.88;0.60;;;;;;;15.54;48.56;98850.66;343964;28;1352;-69
2023/03/23 00:04:04;;;;;;;0.60;0.60;;;;;;;15.48;48.47;98851.06;343283;28;1086;-69
2023/03/23 00:04:16;;;;;;;1.13;0.70;;;;;;;15.45;48.75;98848.66;343681;28;1013;-69
2023/03/23 00:04:29;;;;;;;1.10;0.70;;;;;;;15.45;48.59;98846.03;341310;28;1226;-69
2023/03/23 00:04:42;;;;;;;0.80;0.65;;;;;;;15.41;48.64;98849.78;340858;29;1190;-68
2023/03/23 00:04:53;;;;;;;0.65;0.65;;;;;;;15.43;48.84;98853.13;340528;29;927;-68
2023/03/23 00:05:07;;;;;;;0.68;0.60;;;;;;;15.42;48.88;98851.47;342338;28;954;-68
2023/03/23 00:05:17;;;;;;;0.80;0.60;;;;;;;15.42;48.61;98855.88;342766;28;1861;-69
2023/03/23 00:05:29;;;;;;;0.98;0.70;;;;;;;15.46;48.61;98852.97;342802;28;1533;-69
2023/03/23 00:05:49;;;;;;;1.08;0.70;;;;;;;15.50;48.95;98848.38;343354;28;959;-69
2023/03/23 00:06:05;;;;;;;1.30;0.70;;;;;;;15.38;49.13;98848.22;340668;29;1442;-69
2023/03/23 00:06:18;;;;;;;1.20;0.80;;;;;;;15.33;48.83;98845.06;341824;28;1060;-69
2023/03/23 00:06:32;;;;;;;1.15;0.70;;;;;;;15.32;49.01;98850.41;342014;28;997;-68
2023/03/23 00:06:45;;;;;;;1.23;0.70;;;;;;;15.34;49.12;98848.53;340328;29;1162;-68
2023/03/23 00:06:56;;;;;;;1.38;0.70;;;;;;;15.35;49.04;98850.19;341298;28;981;-68
2023/03/23 00:07:06;;;;;;;1.10;0.70;;;;;;;15.37;49.08;98848.31;340440;29;971;-68
2023/03/23 00:07:21;;;;;;;1.73;0.70;;;;;;;15.39;49.13;98851.66;340000;28;1683;-68
2023/03/23 00:07:32;;;;;;;1.70;0.77;;;;;;;15.30;49.37;98847.03;340708;29;1415;-68
2023/03/23 00:07:45;;;;;;;1.48;0.80;;;;;;;15.27;49.44;98853.31;340682;29;1101;-68
2023/03/23 00:07:56;;;;;;;1.10;0.80;;;;;;;15.33;49.66;98844.22;343990;28;1626;-68
2023/03/23 00:08:12;;;;;;;1.10;0.70;;;;;;;15.32;49.33;98847.78;343375;28;967;-68
2023/03/23 00:08:23;;;;;;;1.08;0.63;;;;;;;15.28;49.30;98847.13;343178;28;1089;-69
2023/03/23 00:08:45;;;;;;;0.85;0.60;;;;;;;15.14;49.61;98848.03;343135;28;927;-69
2023/03/23 00:09:05;;;;;;;0.75;0.63;;;;;;;15.06;49.86;98860.75;343450;28;1036;-69
2023/03/23 00:09:17;;;;;;;1.25;0.70;;;;;;;15.16;49.75;98861.03;342001;28;1264;-69
2023/03/23 00:09:28;;;;;;;1.05;0.70;;;;;;;15.17;49.66;98854.84;341752;28;990;-69
2023/03/23 00:09:40;;;;;;;0.95;0.60;;;;;;;15.15;49.76;98849.72;340961;29;1062;-69
2023/03/23 00:09:53;;;;;;;0.50;0.50;;;;;;;15.20;49.63;98851.19;340332;29;1414;-69
2023/03/23 00:10:05;;;;;;;0.70;0.60;;;;;;;15.27;49.25;98852.47;340086;28;1781;-69
2023/03/23 00:10:16;;;;;;;0.90;0.70;;;;;;;15.25;49.10;98849.09;340900;29;1063;-68
2023/03/23 00:10:27;;;;;;;0.88;0.68;;;;;;;15.25;49.24;98862.19;339112;29;890;-68
2023/03/23 00:10:38;;;;;;;1.17;0.75;;;;;;;15.36;49.12;98849.25;340793;29;932;-68
2023/03/23 00:10:56;;;;;;;1.50;0.88;;;;;;;15.40;48.94;98855.97;340215;29;1312;-69
2023/03/23 00:11:07;;;;;;;1.17;0.93;;;;;;;15.32;48.83;98855.63;340954;28;1908;-68
2023/03/23 00:11:20;;;;;;;0.88;0.80;;;;;;;15.37;48.87;98853.53;340260;29;1337;-68
2023/03/23 00:11:32;;;;;;;0.90;0.80;;;;;;;15.41;48.94;98849.78;340319;28;1816;-68
2023/03/23 00:11:43;;;;;;;0.90;0.70;;;;;;;15.42;48.85;98846.25;339396;29;1225;-68
2023/03/23 00:11:56;;;;;;;1.00;0.80;;;;;;;15.45;48.61;98858.28;338314;29;990;-68
2023/03/23 00:12:07;;;;;;;1.13;0.70;;;;;;;15.44;48.89;98854.84;338133;29;1092;-68
2023/03/23 00:12:32;;;;;;;1.10;0.80;;;;;;;15.42;48.89;98861.13;338179;29;971;-68
2023/03/23 00:12:44;;;;;;;0.70;0.70;;;;;;;15.46;48.62;98858.19;339101;29;2996;-69
2023/03/23 00:12:57;;;;;;;0.88;0.75;;;;;;;15.42;48.98;98856.72;341298;28;1152;-69
2023/03/23 00:13:08;;;;;;;0.90;0.70;;;;;;;15.45;48.73;98856.50;339853;28;1856;-69
2023/03/23 00:13:20;;;;;;;1.80;0.70;;;;;;;15.43;49.04;98853.13;340984;29;960;-69
2023/03/23 00:13:31;;;;;;;1.70;0.60;;;;;;;15.42;49.06;98854.09;341714;28;750;-69
2023/03/23 00:13:43;;;;;;;2.05;0.80;;;;;;;15.34;49.05;98853.75;341391;28;870;-69
2023/03/23 00:13:57;;;;;;;1.20;0.85;;;;;;;15.28;49.24;98848.91;339136;29;1044;-68
2023/03/23 00:14:13;;;;;;;0.88;0.80;;;;;;;15.29;49.25;98847.97;339971;29;1678;-68
2023/03/23 00:14:24;;;;;;;0.70;0.70;;;;;;;15.33;49.20;98852.94;340426;29;1018;-68
2023/03/23 00:14:41;;;;;;;0.90;0.80;;;;;;;15.32;49.15;98858.25;342002;28;1032;-68
2023/03/23 00:14:53;;;;;;;0.88;0.77;;;;;;;15.37;48.89;98854.41;340681;28;1999;-68
2023/03/23 00:15:07;;;;;;;0.80;0.70;;;;;;;15.38;49.08;98850.84;342139;28;1088;-68
2023/03/23 00:15:18;;;;;;;0.80;0.75;;;;;;;15.37;48.91;98848.31;341772;28;1125;-68
2023/03/23 00:15:33;;;;;;;0.80;0.73;;;;;;;15.39;48.98;98849.03;340952;29;1906;-69
2023/03/23 00:15:43;;;;;;;0.80;0.70;;;;;;;15.36;48.94;98850.09;341977;28;1324;-69
2023/03/23 00:15:56;;;;;;;2.00;0.68;;;;;;;15.38;49.08;98857.84;341621;28;587;-69
2023/03/23 00:16:16;;;;;;;2.42;0.70;;;;;;;15.38;48.92;98852.63;341658;28;979;-69
2023/03/23 00:16:31;;;;;;;1.50;0.80;;;;;;;15.35;49.13;98858.03;343163;28;1011;-69
2023/03/23 00:16:45;;;;;;;0.93;0.70;;;;;;;15.34;49.14;98853.75;342138;28;1102;-69
2023/03/23 00:16:56;;;;;;;1.05;0.77;;;;;;;15.33;49.16;98849.44;341773;28;1044;-69
2023/03/23 00:17:10;;;;;;;1.30;0.90;;;;;;;15.34;49.49;98849.34;341095;29;917;-69
2023/03/23 00:17:23;;;;;;;2.13;0.98;;;;;;;15.36;49.27;98851.88;340840;29;1037;-69
2023/03/23 00:17:34;;;;;;;1.70;0.77;;;;;;;15.39;48.98;98851.66;340933;29;1341;-69
2023/03/23 00:17:46;;;;;;;1.08;0.75;;;;;;;15.42;49.04;98850.66;341297;28;1590;-68
2023/03/23 00:18:02;;;;;;;0.75;0.73;;;;;;;15.41;49.09;98852.41;340672;29;1039;-68
2023/03/23 00:18:21;;;;;;;1.15;0.80;;;;;;;15.41;48.98;98852.41;339605;29;1272;-68
2023/03/23 00:18:35;;;;;;;1.50;0.88;;;;;;;15.41;49.23;98855.03;338137;29;961;-69
2023/03/23 00:18:53;;;;;;;1.00;0.80;;;;;;;15.38;49.02;98855.25;338128;29;1323;-69
2023/03/23 00:19:07;;;;;;;0.98;0.77;;;;;;;15.42;49.06;98850.66;339474;29;1251;-69
2023/03/23 00:19:19;;;;;;;1.63;0.80;;;;;;;15.41;48.90;98855.03;339416;29;1032;-69
2023/03/23 00:19:30;;;;;;;2.30;0.80;;;;;;;15.42;49.13;98845.41;338035;29;1017;-69
2023/03/23 00:19:51;;;;;;;1.80;0.80;;;;;;;15.44;49.11;98849.59;339343;29;1058;-69
2023/03/23 00:20:05;;;;;;;1.20;0.80;;;;;;;15.46;48.84;98845.09;340369;29;1056;-69
2023/03/23 00:20:16;;;;;;;1.38;0.70;;;;;;;15.47;48.86;98852.00;341983;28;1989;-69
2023/03/23 00:20:29;;;;;;;1.17;0.73;;;;;;;15.47;48.98;98857.25;340090;29;1611;-69
2023/03/23 00:20:40;;;;;;;1.38;0.80;;;;;;;15.47;48.76;98849.38;340622;28;1924;-69
2023/03/23 00:20:56;;;;;;;1.90;0.80;;;;;;;15.46;48.89;98852.97;341961;28;1160;-69
2023/03/23 00:21:10;;;;;;;1.65;0.77;;;;;;;15.46;48.55;98847.72;340707;29;1035;-69
2023/03/23 00:21:25;;;;;;;1.10;0.80;;;;;;;15.45;48.66;98848.66;339344;29;994;-69
2023/03/23 00:21:38;;;;;;;1.10;0.75;;;;;;;15.46;48.80;98850.34;339068;29;1050;-69
2023/03/23 00:21:53;;;;;;;1.30;0.73;;;;;;;15.49;48.63;98847.53;339551;29;1295;-69
2023/03/23 00:22:04;;;;;;;1.70;0.90;;;;;;;15.48;48.79;98847.63;339177;29;934;-69
2023/03/23 00:22:20;;;;;;;1.70;0.97;;;;;;;15.51;48.88;98847.41;339859;29;811;-69
2023/03/23 00:22:37;;;;;;;2.58;1.08;;;;;;;15.51;48.81;98840.41;338979;29;950;-69
2023/03/23 00:22:50;;;;;;;2.50;1.10;;;;;;;15.51;48.69;98845.66;340234;29;1299;-69
2023/03/23 00:23:01;;;;;;;2.13;1.05;;;;;;;15.51;48.73;98840.41;340969;29;1038;-69
2023/03/23 00:23:18;;;;;;;2.33;1.00;;;;;;;15.48;48.66;98845.84;343145;28;1671;-69
2023/03/23 00:23:29;;;;;;;1.58;1.00;;;;;;;15.47;49.03;98846.75;342058;28;1045;-69
2023/03/23 00:23:40;;;;;;;1.70;1.00;;;;;;;15.48;49.04;98845.84;341872;28;895;-69
2023/03/23 00:23:54;;;;;;;1.63;1.00;;;;;;;15.48;48.78;98837.97;340951;29;983;-69
2023/03/23 00:24:16;;;;;;;1.52;1.00;;;;;;;15.51;48.69;98844.78;340775;29;1117;-69
2023/03/23 00:24:28;;;;;;;1.20;0.82;;;;;;;15.49;48.82;98844.91;338352;29;1297;-69
2023/03/23 00:24:39;;;;;;;1.92;0.80;;;;;;;15.47;48.77;98845.94;339024;29;1014;-69
2023/03/23 00:24:50;;;;;;;1.75;0.70;;;;;;;15.49;48.70;98837.06;339437;29;1129;-69
2023/03/23 00:25:01;;;;;;;1.88;0.73;;;;;;;15.52;48.64;98841.25;339003;29;1237;-69
2023/03/23 00:25:12;;;;;;;1.25;0.80;;;;;;;15.50;48.66;98836.09;340356;29;711;-69
2023/03/23 00:25:23;;;;;;;1.13;0.90;;;;;;;15.53;48.52;98837.66;342703;28;799;-69
2023/03/23 00:25:34;;;;;;;1.00;0.90;;;;;;;15.56;48.49;98837.47;340186;29;944;-69
2023/03/23 00:25:48;;;;;;;1.02;0.80;;;;;;;15.53;48.86;98841.16;340782;29;1210;-69
2023/03/23 00:25:59;;;;;;;1.00;0.90;;;;;;;15.53;48.80;98833.28;342047;28;1312;-69
2023/03/23 00:26:10;;;;;;;1.05;0.90;;;;;;;15.51;48.62;98840.41;342438;28;971;-69
2023/03/23 00:26:21;;;;;;;1.30;0.90;;;;;;;15.45;49.06;98840.78;341752;28;1076;-69
2023/03/23 00:26:33;;;;;;;1.40;0.90;;;;;;;15.46;48.84;98832.00;341521;28;1663;-69
2023/03/23 00:26:46;;;;;;;1.25;0.88;;;;;;;15.40;48.87;98834.19;343071;28;1227;-69
2023/03/23 00:26:58;;;;;;;1.00;0.90;;;;;;;15.42;49.14;98834.94;343179;28;1152;-69
2023/03/23 00:27:12;;;;;;;1.00;0.90;;;;;;;15.42;49.16;98835.75;341064;29;990;-69
2023/03/23 00:27:23;;;;;;;1.50;1.00;;;;;;;15.36;48.98;98833.56;342379;28;1010;-69
2023/03/23 00:27:34;;;;;;;1.40;0.90;;;;;;;15.36;49.12;98836.16;340629;29;1347;-69
2023/03/23 00:27:45;;;;;;;1.30;0.85;;;;;;;15.40;49.16;98832.41;342006;28;1557;-69
2023/03/23 00:27:56;;;;;;;1.20;0.85;;;;;;;15.38;48.95;98832.50;343158;28;1123;-69
2023/03/23 00:28:08;;;;;;;1.30;0.90;;;;;;;15.33;49.21;98831.13;342414;28;1108;-69
2023/03/23 00:28:24;;;;;;;1.42;0.90;;;;;;;15.34;49.20;98833.63;343135;28;1153;-69
2023/03/23 00:28:35;;;;;;;1.40;0.80;;;;;;;15.34;49.27;98832.81;341050;28;1849;-69
2023/03/23 00:28:46;;;;;;;1.40;0.80;;;;;;;15.34;49.13;98833.63;343332;28;1915;-69
2023/03/23 00:29:00;;;;;;;1.25;0.80;;;;;;;15.37;49.10;98838.69;342078;28;1025;-69
2023/03/23 00:29:23;;;;;;;1.33;0.90;;;;;;;15.34;49.19;98832.81;341407;28;2201;-69
2023/03/23 00:29:34;;;;;;;1.30;0.80;;;;;;;15.31;49.25;98827.75;340741;28;1882;-69
2023/03/23 00:29:45;;;;;;;0.90;0.80;;;;;;;15.32;49.56;98832.06;339253;29;3492;-69
2023/03/23 00:29:56;;;;;;;0.75;0.75;;;;;;;15.37;49.12;98830.84;339319;29;1140;-69
2023/03/23 00:30:08;;;;;;;1.60;0.70;;;;;;;15.45;48.86;98832.09;338075;29;1031;-69
2023/03/23 00:30:19;;;;;;;1.60;0.68;;;;;;;15.40;48.95;98824.56;339434;29;965;-69
2023/03/23 00:30:29;;;;;;;0.87;0.73;;;;;;;15.40;48.84;98832.41;339964;29;783;-69
2023/03/23 00:30:41;;;;;;;1.00;0.73;;;;;;;15.36;48.94;98825.69;339496;29;1085;-69
2023/03/23 00:30:56;;;;;;;1.13;0.80;;;;;;;15.33;49.15;98824.13;339240;29;1620;-69
2023/03/23 00:31:09;;;;;;;0.88;0.80;;;;;;;15.34;49.09;98822.34;339471;29;1068;-69
2023/03/23 00:31:20;;;;;;;1.48;0.90;;;;;;;15.32;49.13;98824.22;339068;29;972;-69
2023/03/23 00:31:32;;;;;;;1.40;1.00;;;;;;;15.38;49.33;98822.03;339166;29;1027;-69
2023/03/23 00:31:46;;;;;;;1.27;1.00;;;;;;;15.38;49.22;98829.06;339663;29;1746;-69
2023/03/23 00:31:57;;;;;;;1.10;0.90;;;;;;;15.41;49.21;98823.59;337609;29;1059;-69
2023/03/23 00:32:12;;;;;;;1.00;0.90;;;;;;;15.40;49.13;98819.31;338164;29;1049;-69
2023/03/23 00:32:27;;;;;;;1.08;0.80;;;;;;;15.40;48.94;98831.56;341179;28;955;-69
2023/03/23 00:32:38;;;;;;;1.02;0.80;;;;;;;15.40;48.96;98824.56;341747;28;1093;-69
2023/03/23 00:32:50;;;;;;;0.80;0.80;;;;;;;15.43;48.68;98826.94;342084;28;994;-69
2023/03/23 00:33:01;;;;;;;1.05;0.77;;;;;;;15.46;48.89;98826.75;343497;28;1330;-69
2023/03/23 00:33:13;;;;;;;1.00;0.70;;;;;;;15.45;48.77;98819.84;341514;28;998;-69
2023/03/23 00:33:27;;;;;;;1.45;0.80;;;;;;;15.43;48.77;98826.13;341807;28;1044;-69
2023/03/23 00:33:40;;;;;;;1.45;0.80;;;;;;;15.39;48.76;98828.09;342354;28;1759;-69
2023/03/23 00:33:51;;;;;;;1.40;0.75;;;;;;;15.43;48.87;98821.72;342301;28;1173;-69
2023/03/23 00:34:04;;;;;;;1.43;0.70;;;;;;;15.46;48.67;98815.47;342364;28;1013;-69
2023/03/23 00:34:20;;;;;;;1.08;0.70;;;;;;;15.43;48.67;98826.94;342268;28;1291;-69
2023/03/23 00:34:33;;;;;;;0.80;0.70;;;;;;;15.46;48.61;98828.56;342210;28;1912;-69
2023/03/23 00:34:45;;;;;;;0.70;0.70;;;;;;;15.48;48.52;98818.81;341002;28;1877;-69
2023/03/23 00:34:58;;;;;;;0.75;0.60;;;;;;;15.47;48.84;98815.34;340740;29;1134;-69
2023/03/23 00:35:09;;;;;;;1.02;0.60;;;;;;;15.43;49.07;98824.34;340388;29;952;-69
2023/03/23 00:35:23;;;;;;;1.20;0.60;;;;;;;15.43;48.95;98816.47;340897;28;1787;-69
2023/03/23 00:35:37;;;;;;;1.58;0.82;;;;;;;15.41;48.63;98818.34;341724;28;1715;-69
2023/03/23 00:35:48;;;;;;;1.65;0.90;;;;;;;15.39;48.84;98817.63;341928;28;1191;-69
2023/03/23 00:35:59;;;;;;;1.60;0.90;;;;;;;15.41;48.86;98817.53;340430;29;963;-69
2023/03/23 00:36:12;;;;;;;1.40;0.77;;;;;;;15.38;49.03;98815.97;341648;28;2014;-69
2023/03/23 00:36:24;;;;;;;0.73;0.70;;;;;;;15.34;49.16;98812.69;341921;28;1100;-69
2023/03/23 00:36:35;;;;;;;1.10;0.85;;;;;;;15.38;49.22;98815.97;340536;28;1696;-69
2023/03/23 00:36:53;;;;;;;1.27;0.90;;;;;;;15.34;49.04;98817.09;340060;28;1700;-69
2023/03/23 00:37:03;;;;;;;1.10;1.00;;;;;;;15.37;48.91;98822.13;340137;28;1755;-69
2023/03/23 00:37:16;;;;;;;0.90;0.80;;;;;;;15.39;48.96;98815.00;341659;28;1640;-69
2023/03/23 00:37:27;;;;;;;1.00;0.90;;;;;;;15.34;49.17;98814.47;338836;29;1609;-69
2023/03/23 00:37:38;;;;;;;2.50;0.90;;;;;;;15.38;49.03;98819.41;340055;29;898;-69
2023/03/23 00:37:51;;;;;;;2.47;0.93;;;;;;;15.41;49.05;98810.50;339684;29;1554;-69
2023/03/23 00:38:04;;;;;;;1.38;0.90;;;;;;;15.36;48.94;98815.22;338737;29;1865;-69
2023/03/23 00:38:15;;;;;;;0.80;0.80;;;;;;;15.37;49.29;98816.88;340248;29;1611;-69
2023/03/23 00:38:26;;;;;;;0.63;0.60;;;;;;;15.35;49.27;98811.78;339697;29;989;-69
2023/03/23 00:38:38;;;;;;;0.68;0.60;;;;;;;15.38;49.20;98818.56;340523;29;997;-69
2023/03/23 00:38:49;;;;;;;1.17;0.70;;;;;;;15.37;49.20;98806.41;341254;28;1207;-69
2023/03/23 00:39:03;;;;;;;1.30;0.80;;;;;;;15.35;49.43;98814.38;341557;28;1186;-69
2023/03/23 00:39:16;;;;;;;0.88;0.80;;;;;;;15.25;49.58;98810.69;340077;29;1805;-69
2023/03/23 00:39:28;;;;;;;0.73;0.73;;;;;;;15.23;49.86;98809.09;340585;29;1811;-69
2023/03/23 00:39:45;;;;;;;1.00;0.90;;;;;;;15.21;49.57;98808.34;340359;29;956;-69
2023/03/23 00:39:57;;;;;;;0.98;0.88;;;;;;;15.22;49.62;98812.66;340624;29;1265;-69
2023/03/23 00:40:10;;;;;;;0.70;0.70;;;;;;;15.25;49.56;98812.44;338841;29;1693;-69
2023/03/23 00:40:21;;;;;;;0.95;0.75;;;;;;;15.27;49.26;98808.81;339067;29;1220;-69
2023/03/23 00:40:35;;;;;;;1.23;0.83;;;;;;;15.28;49.35;98807.03;338563;29;896;-69
2023/03/23 00:40:47;;;;;;;1.30;0.90;;;;;;;15.31;49.37;98810.28;339462;28;1213;-69
2023/03/23 00:41:02;;;;;;;1.40;0.87;;;;;;;15.33;49.32;98815.41;339223;29;1025;-69
2023/03/23 00:41:15;;;;;;;2.15;0.80;;;;;;;15.35;49.41;98800.44;339306;29;1883;-69
2023/03/23 00:41:27;;;;;;;2.40;0.88;;;;;;;15.30;49.58;98805.97;341633;28;1520;-69
2023/03/23 00:41:38;;;;;;;1.60;0.90;;;;;;;15.34;49.53;98809.25;341790;28;1173;-69
2023/03/23 00:41:50;;;;;;;1.70;0.90;;;;;;;15.36;49.46;98802.13;341732;28;1208;-69
2023/03/23 00:42:01;;;;;;;2.00;0.80;;;;;;;15.34;49.41;98801.38;343189;28;943;-69
2023/03/23 00:42:14;;;;;;;1.83;0.90;;;;;;;15.30;49.02;98805.16;344284;28;938;-69
2023/03/23 00:42:25;;;;;;;1.30;0.90;;;;;;;15.33;49.22;98800.56;342083;28;1946;-69
2023/03/23 00:42:37;;;;;;;1.13;0.90;;;;;;;15.38;49.10;98803.69;340985;29;954;-69
2023/03/23 00:42:48;;;;;;;1.55;0.82;;;;;;;15.39;49.28;98804.53;341541;28;1204;-69
2023/03/23 00:43:03;;;;;;;1.60;0.88;;;;;;;15.38;49.02;98797.63;341183;28;1650;-69
2023/03/23 00:43:16;;;;;;;1.87;0.90;;;;;;;15.41;49.14;98802.66;340288;28;1847;-69
2023/03/23 00:43:28;;;;;;;1.40;0.82;;;;;;;15.42;48.90;98801.72;343447;28;1080;-69
2023/03/23 00:43:40;;;;;;;1.63;0.90;;;;;;;15.42;48.99;98795.66;343014;28;971;-69
2023/03/23 00:43:51;;;;;;;2.00;0.82;;;;;;;15.38;49.16;98797.63;344631;28;1183;-69
2023/03/23 00:44:05;;;;;;;2.17;0.90;;;;;;;15.39;49.01;98799.28;343491;28;959;-69
2023/03/23 00:44:19;;;;;;;1.50;0.90;;;;;;;15.40;49.08;98805.38;339666;29;1014;-69
2023/03/23 00:44:34;;;;;;;0.98;0.88;;;;;;;15.43;49.15;98798.16;338401;29;1165;-69
2023/03/23 00:44:46;;;;;;;1.65;0.80;;;;;;;15.43;48.99;98802.56;340520;28;1861;-69
2023/03/23 00:44:59;;;;;;;1.88;0.80;;;;;;;15.41;48.99;98797.41;341725;28;1641;-69
2023/03/23 00:45:11;;;;;;;1.52;0.85;;;;;;;15.37;49.27;98795.94;341215;28;4072;-69
2023/03/23 00:45:23;;;;;;;1.33;0.80;;;;;;;15.42;49.12;98800.88;341037;28;2974;-69
2023/03/23 00:45:36;;;;;;;0.93;0.70;;;;;;;15.38;49.12;98802.88;342315;28;1275;-69
2023/03/23 00:45:52;;;;;;;1.13;0.70;;;;;;;15.38;49.30;98797.63;341517;28;1650;-69
2023/03/23 00:46:08;;;;;;;1.20;0.75;;;;;;;15.34;49.87;98801.38;339703;29;1049;-69
2023/03/23 00:46:20;;;;;;;1.13;0.88;;;;;;;15.28;49.80;98791.31;339914;28;1723;-69
2023/03/23 00:46:31;;;;;;;1.40;1.00;;;;;;;15.31;49.64;98793.72;342342;28;1988;-69
2023/03/23 00:46:48;;;;;;;1.45;0.93;;;;;;;15.35;49.94;98800.44;341623;28;1599;-69
2023/03/23 00:46:59;;;;;;;0.80;0.63;;;;;;;15.41;49.97;98796.56;341781;28;1819;-69
2023/03/23 00:47:11;;;;;;;1.13;0.70;;;;;;;15.43;49.53;98799.94;341924;28;1113;-69
2023/03/23 00:47:22;;;;;;;1.45;0.80;;;;;;;15.42;49.32;98793.88;341974;28;1100;-69
2023/03/23 00:47:35;;;;;;;1.48;0.80;;;;;;;15.46;49.25;98795.34;341779;28;1352;-69
2023/03/23 00:47:50;;;;;;;0.82;0.75;;;;;;;15.46;49.55;98794.50;339039;28;1651;-69
2023/03/23 00:48:04;;;;;;;1.10;0.80;;;;;;;15.48;49.35;98798.69;341023;29;988;-69
2023/03/23 00:48:15;;;;;;;1.20;0.85;;;;;;;15.50;49.51;98791.56;339276;29;1255;-69
2023/03/23 00:48:27;;;;;;;1.33;0.88;;;;;;;15.48;49.25;98796.06;341792;28;1914;-69
2023/03/23 00:48:44;;;;;;;1.10;0.85;;;;;;;15.50;49.34;98788.13;342784;28;1549;-69
2023/03/23 00:48:56;;;;;;;0.85;0.80;;;;;;;15.53;49.04;98791.38;343685;28;847;-69
2023/03/23 00:49:09;;;;;;;0.80;0.80;;;;;;;15.55;48.93;98789.50;341499;28;958;-69
2023/03/23 00:49:24;;;;;;;1.65;0.98;;;;;;;15.58;48.68;98794.50;340781;29;971;-69
2023/03/23 00:49:36;;;;;;;1.80;1.00;;;;;;;15.58;48.67;98794.50;340844;28;1813;-69
2023/03/23 00:49:47;;;;;;;1.23;0.80;;;;;;;15.56;48.68;98791.16;339707;29;1574;-69
2023/03/23 00:49:58;;;;;;;0.98;0.80;;;;;;;15.55;48.44;98788.63;340010;29;1853;-69
2023/03/23 00:50:09;;;;;;;1.00;0.90;;;;;;;15.49;48.46;98787.28;340531;29;1500;-69
2023/03/23 00:50:20;;;;;;;0.80;0.80;;;;;;;15.52;48.40;98794.94;340442;29;1121;-69
2023/03/23 00:50:31;;;;;;;2.30;0.80;;;;;;;15.55;48.53;98797.34;340524;29;1253;-69
2023/03/23 00:50:42;;;;;;;2.70;0.90;;;;;;;15.61;48.01;98790.00;343223;28;1836;-69
2023/03/23 00:50:54;;;;;;;2.92;0.90;;;;;;;15.57;47.97;98797.22;343291;28;1602;-69
2023/03/23 00:51:05;;;;;;;1.88;0.80;;;;;;;15.53;48.31;98794.00;342530;28;1421;-69
2023/03/23 00:51:18;;;;;;;1.95;0.70;;;;;;;15.56;48.53;98791.16;342436;28;1796;-69
2023/03/23 00:51:31;;;;;;;2.00;0.70;;;;;;;15.55;48.45;98794.75;342687;28;1018;-69
2023/03/23 00:51:43;;;;;;;1.42;0.82;;;;;;;15.53;48.62;98791.38;342694;28;1194;-69
2023/03/23 00:51:58;;;;;;;1.52;0.82;;;;;;;15.51;48.35;98798.50;340070;29;1089;-69
2023/03/23 00:52:10;;;;;;;1.25;0.88;;;;;;;15.48;48.20;98798.69;340820;28;1698;-69
2023/03/23 00:52:21;;;;;;;0.95;0.80;;;;;;;15.51;48.19;98792.41;343166;28;1133;-69
2023/03/23 00:52:32;;;;;;;0.85;0.77;;;;;;;15.53;48.12;98791.38;344048;28;861;-69
2023/03/23 00:52:42;;;;;;;1.00;0.70;;;;;;;15.54;48.25;98793.03;343338;28;1334;-69
2023/03/23 00:52:56;;;;;;;1.13;0.73;;;;;;;15.52;48.34;98800.16;343345;28;1018;-69
2023/03/23 00:53:07;;;;;;;1.17;0.70;;;;;;;15.54;48.29;98794.84;342824;28;2262;-69
2023/03/23 00:53:18;;;;;;;1.17;0.77;;;;;;;15.56;48.46;98801.63;342744;28;1650;-69
2023/03/23 00:53:29;;;;;;;0.93;0.70;;;;;;;15.56;48.63;98793.78;340879;29;1154;-69
2023/03/23 00:53:41;;;;;;;1.00;0.80;;;;;;;15.58;48.53;98797.13;341526;28;1537;-69
2023/03/23 00:53:52;;;;;;;1.50;0.77;;;;;;;15.60;48.43;98796.22;341741;28;1272;-69
2023/03/23 00:54:02;;;;;;;1.35;0.80;;;;;;;15.58;48.43;98794.50;343025;28;1139;-69
2023/03/23 00:54:13;;;;;;;1.90;0.80;;;;;;;15.60;48.46;98789.19;341992;28;1827;-69
2023/03/23 00:54:25;;;;;;;1.63;0.80;;;;;;;15.60;48.35;98796.22;341704;28;948;-69
2023/03/23 00:54:37;;;;;;;2.05;0.88;;;;;;;15.61;48.29;98795.25;341305;28;1043;-69
2023/03/23 00:54:48;;;;;;;1.70;0.88;;;;;;;15.65;47.89;98794.09;342198;28;1513;-69
2023/03/23 00:54:59;;;;;;;1.20;0.90;;;;;;;15.64;47.94;98788.03;342998;28;676;-69
2023/03/23 00:55:10;;;;;;;1.48;0.95;;;;;;;15.63;48.08;98799.44;342638;28;961;-69
2023/03/23 00:55:21;;;;;;;1.80;0.90;;;;;;;15.60;47.89;98797.03;341879;28;1504;-69
2023/03/23 00:55:33;;;;;;;1.80;0.85;;;;;;;15.58;47.93;98791.91;341415;28;1655;-69
2023/03/23 00:55:46;;;;;;;1.25;0.80;;;;;;;15.62;47.99;98792.53;342650;28;1294;-69
2023/03/23 00:55:57;;;;;;;0.80;0.80;;;;;;;15.62;47.96;98789.91;341059;29;1717;-69
2023/03/23 00:56:08;;;;;;;1.08;0.80;;;;;;;15.64;48.06;98802.91;341694;28;901;-69
2023/03/23 00:56:19;;;;;;;1.20;0.80;;;;;;;15.63;47.69;98794.19;341097;29;878;-69
2023/03/23 00:56:30;;;;;;;1.20;0.80;;;;;;;15.64;47.76;98789.81;341219;28;1765;-69
2023/03/23 00:56:41;;;;;;;1.65;0.77;;;;;;;15.65;47.76;98800.19;341011;29;1257;-69
2023/03/23 00:56:52;;;;;;;1.83;0.87;;;;;;;15.61;48.26;98792.63;341718;28;1293;-69
2023/03/23 00:57:04;;;;;;;1.98;0.90;;;;;;;15.62;48.13;98799.56;341643;28;1957;-69
2023/03/23 00:57:17;;;;;;;1.95;0.90;;;;;;;15.57;48.06;98792.84;340981;28;1734;-69
2023/03/23 00:57:28;;;;;;;1.30;0.77;;;;;;;15.54;47.88;98798.28;340423;29;2154;-69
2023/03/23 00:57:38;;;;;;;0.88;0.73;;;;;;;15.59;48.08;98792.72;338384;29;1486;-69
2023/03/23 00:57:51;;;;;;;0.93;0.80;;;;;;;15.58;47.78;98794.50;339386;29;1471;-69
2023/03/23 00:58:02;;;;;;;1.00;0.73;;;;;;;15.55;47.91;98789.50;338776;29;1750;-69
2023/03/23 00:58:14;;;;;;;1.25;0.80;;;;;;;15.63;47.87;98796.00;341266;28;1557;-69
2023/03/23 00:58:25;;;;;;;1.17;0.70;;;;;;;15.65;47.93;98796.72;341379;28;1178;-69
2023/03/23 00:58:36;;;;;;;1.15;0.73;;;;;;;15.67;47.78;98798.28;341297;28;1464;-69
2023/03/23 00:58:47;;;;;;;1.00;0.75;;;;;;;15.69;47.72;98804.25;342543;28;1788;-69
2023/03/23 00:58:58;;;;;;;1.17;0.85;;;;;;;15.67;47.55;98793.06;340467;29;926;-69
2023/03/23 00:59:09;;;;;;;1.27;0.82;;;;;;;15.68;47.73;98793.91;341662;28;915;-69
2023/03/23 00:59:21;;;;;;;1.50;0.90;;;;;;;15.69;47.46;98801.66;340595;29;859;-69
2023/03/23 00:59:32;;;;;;;1.05;0.80;;;;;;;15.69;47.50;98791.16;341548;28;1757;-69
2023/03/23 00:59:43;;;;;;;1.42;0.80;;;;;;;15.65;47.34;98800.19;341618;28;860;-69
2023/03/23 00:59:54;;;;;;;1.60;0.80;;;;;;;15.66;47.52;98795.78;342019;28;1894;-69
2023/03/23 01:00:11;;;;;;;1.55;0.80;;;;;;;15.68;47.31;98799.16;342195;28;997;-69
2023/03/23 01:00:23;;;;;;;0.80;0.70;;;;;;;15.71;47.67;98798.94;342148;28;1018;-69
2023/03/23 01:00:34;;;;;;;0.90;0.70;;;;;;;15.62;47.83;98799.56;341065;28;1838;-69
2023/03/23 01:00:45;;;;;;;1.08;0.80;;;;;;;15.63;47.76;98798.59;341197;28;1139;-69
2023/03/23 01:00:56;;;;;;;1.00;0.80;;;;;;;15.65;47.83;98799.34;340923;28;1696;-69
2023/03/23 01:01:09;;;;;;;0.93;0.80;;;;;;;15.63;47.40;98801.22;340358;29;1089;-69